Time;durP1;ratioP1;P1;durP2;ratioP2;P2;SDS_P1;SDS_P2;PMS_P1;PMS_P2;Temp;Humidity;BMP_temperature;BMP_pressure;BME280_temperature;BME280_humidity;BME280_pressure;Samples;Min_cycle;Max_cycle;Signal;HPM_P1;HPM_P2
2023/07/26 00:02:12;;;;;;;2.35;0.73;;;;;;;13.91;71.75;99059.84;5028558;28;20033;-63
2023/07/26 00:04:37;;;;;;;0.50;0.50;;;;;;;13.93;71.77;99064.06;5029011;28;20102;-63
2023/07/26 00:07:02;;;;;;;2.83;0.98;;;;;;;13.88;71.55;99064.25;5046674;28;20021;-63
2023/07/26 00:09:28;;;;;;;0.65;0.40;;;;;;;13.81;71.57;99060.25;5028665;28;20029;-64
2023/07/26 00:11:53;;;;;;;1.77;0.63;;;;;;;13.80;71.38;99066.34;5046669;28;20116;-64
2023/07/26 00:14:19;;;;;;;0.50;0.50;;;;;;;13.80;71.21;99066.34;5046994;28;20425;-62
2023/07/26 00:16:44;;;;;;;3.83;1.00;;;;;;;13.78;71.63;99068.19;5046284;28;20029;-62
2023/07/26 00:19:10;;;;;;;6.35;0.88;;;;;;;13.77;71.55;99071.69;5028472;28;20083;-63
2023/07/26 00:21:36;;;;;;;5.22;0.80;;;;;;;13.76;71.66;99059.59;5046421;28;20032;-63
2023/07/26 00:24:02;;;;;;;0.90;0.73;;;;;;;13.76;71.78;99059.59;5046308;28;20025;-63
2023/07/26 00:26:28;;;;;;;0.95;0.75;;;;;;;13.75;71.82;99065.72;5046628;28;20520;-63
2023/07/26 00:28:53;;;;;;;2.33;0.77;;;;;;;13.72;72.18;99076.28;5046194;28;20100;-63
2023/07/26 00:31:18;;;;;;;1.40;0.95;;;;;;;13.71;71.82;99066.75;5046104;28;20516;-62
2023/07/26 00:33:44;;;;;;;7.72;0.65;;;;;;;13.73;71.52;99054.50;5045866;28;20024;-63
2023/07/26 00:36:09;;;;;;;2.50;1.00;;;;;;;13.68;71.92;99069.50;5046326;28;20059;-63
2023/07/26 00:38:35;;;;;;;1.42;0.77;;;;;;;13.69;71.75;99071.22;5046006;28;20037;-64
2023/07/26 00:41:00;;;;;;;4.40;0.55;;;;;;;13.68;71.87;99065.13;5046070;28;20046;-63
2023/07/26 00:43:26;;;;;;;4.00;0.52;;;;;;;13.66;72.03;99069.56;5046266;28;20072;-63
2023/07/26 00:45:53;;;;;;;2.67;0.98;;;;;;;13.63;72.04;99065.34;5045856;28;20499;-63
2023/07/26 00:48:19;;;;;;;0.65;0.50;;;;;;;13.58;72.05;99056.84;5045987;28;20017;-62
2023/07/26 00:50:47;;;;;;;2.30;0.70;;;;;;;13.63;72.41;99065.34;5045931;28;20056;-62
2023/07/26 00:53:13;;;;;;;4.95;1.00;;;;;;;13.61;72.54;99061.13;5045878;28;20025;-63
2023/07/26 00:55:39;;;;;;;0.57;0.57;;;;;;;13.65;72.49;99061.81;5045647;28;20026;-63
2023/07/26 00:58:04;;;;;;;11.18;0.60;;;;;;;13.59;72.54;99055.97;5046033;28;20086;-63
2023/07/26 01:00:30;;;;;;;3.13;1.23;;;;;;;13.63;72.55;99069.69;5045867;28;20450;-63
2023/07/26 01:02:55;;;;;;;4.78;0.50;;;;;;;13.68;72.56;99070.34;5045622;28;20076;-63
2023/07/26 01:05:24;;;;;;;1.17;0.68;;;;;;;13.72;72.60;99077.13;5045651;28;20029;-63
2023/07/26 01:08:21;;;;;;;1.80;0.45;;;;;;;13.77;72.54;99074.31;5045611;28;20022;-63
2023/07/26 01:10:59;;;;;;;3.60;0.60;;;;;;;13.78;72.90;99083.00;5045498;28;20029;-65
2023/07/26 01:13:59;;;;;;;7.88;0.93;;;;;;;13.78;72.74;99076.03;5044883;28;20068;-63
2023/07/26 01:16:25;;;;;;;8.55;0.75;;;;;;;13.72;73.02;99084.13;5045184;28;20021;-63
2023/07/26 01:18:50;;;;;;;0.75;0.43;;;;;;;13.69;72.84;99084.25;5045412;28;20558;-63
2023/07/26 01:21:16;;;;;;;1.42;0.68;;;;;;;13.63;73.20;99074.91;5044990;28;20029;-63
2023/07/26 01:23:41;;;;;;;1.92;0.50;;;;;;;13.66;72.73;99077.38;5045066;28;20089;-63
2023/07/26 01:26:06;;;;;;;2.63;0.73;;;;;;;13.69;72.66;99076.44;5045378;28;20025;-64
2023/07/26 01:28:33;;;;;;;1.52;0.70;;;;;;;13.62;72.66;99078.44;5045124;28;20493;-63
2023/07/26 01:31:00;;;;;;;2.38;0.90;;;;;;;13.60;72.70;99083.72;5045410;28;20017;-63
2023/07/26 01:33:28;;;;;;;11.43;1.08;;;;;;;13.69;72.29;99089.47;5045567;28;20024;-62
2023/07/26 01:35:53;;;;;;;1.30;0.80;;;;;;;13.62;72.74;99084.50;5045250;28;20108;-63
2023/07/26 01:38:20;;;;;;;2.53;0.40;;;;;;;13.63;72.65;99091.41;5044841;28;20018;-63
2023/07/26 01:40:47;;;;;;;3.08;1.05;;;;;;;13.62;72.97;99092.34;5045586;28;20037;-63
2023/07/26 01:43:12;;;;;;;1.27;1.10;;;;;;;13.58;72.99;99082.06;5045197;28;20017;-64
2023/07/26 01:45:38;;;;;;;0.75;0.50;;;;;;;13.49;73.73;99094.56;5045051;28;20055;-64
2023/07/26 01:48:03;;;;;;;2.92;0.85;;;;;;;13.47;73.81;99077.28;5045451;28;20018;-63
2023/07/26 01:50:29;;;;;;;3.10;0.63;;;;;;;13.48;74.14;99079.00;5045285;28;20024;-62
2023/07/26 01:52:54;;;;;;;2.65;0.98;;;;;;;13.48;74.25;99081.59;5045431;28;20448;-65
2023/07/26 01:55:19;;;;;;;6.80;1.00;;;;;;;13.47;74.34;99078.13;5045231;28;20024;-63
2023/07/26 01:57:45;;;;;;;2.85;1.23;;;;;;;13.42;74.11;99077.47;5045335;28;20048;-63
2023/07/26 02:00:11;;;;;;;5.25;1.08;;;;;;;13.46;73.95;99083.41;5045156;28;20025;-63
2023/07/26 02:02:36;;;;;;;1.05;0.63;;;;;;;13.43;73.75;99079.19;5044821;28;20030;-63
2023/07/26 02:05:01;;;;;;;8.63;1.85;;;;;;;13.41;74.05;99083.63;5045207;28;20101;-63
2023/07/26 02:07:27;;;;;;;1.20;1.00;;;;;;;13.42;74.51;99077.47;5045023;28;20104;-62
2023/07/26 02:09:52;;;;;;;4.68;1.15;;;;;;;13.43;73.98;99080.94;5044757;28;20028;-63
2023/07/26 02:12:18;;;;;;;4.10;1.40;;;;;;;13.38;74.38;99083.75;5044789;28;20473;-62
2023/07/26 02:14:43;;;;;;;4.63;1.20;;;;;;;13.37;74.22;99084.66;5045247;28;20053;-63
2023/07/26 02:17:08;;;;;;;6.93;0.40;;;;;;;13.31;74.34;99083.13;5044744;28;20147;-63
2023/07/26 02:19:35;;;;;;;0.77;0.60;;;;;;;13.16;74.41;99071.59;5027316;28;20370;-63
2023/07/26 02:22:00;;;;;;;2.20;1.00;;;;;;;13.20;74.45;99087.94;5044718;28;20021;-63
2023/07/26 02:24:25;;;;;;;2.90;0.65;;;;;;;12.99;74.34;99062.69;5045087;28;20083;-62
2023/07/26 02:26:51;;;;;;;4.85;0.80;;;;;;;13.05;74.54;99087.66;5047560;28;20025;-62
2023/07/26 02:29:16;;;;;;;3.70;1.13;;;;;;;13.05;75.02;99089.41;5047549;28;20473;-63
2023/07/26 02:31:41;;;;;;;4.50;1.00;;;;;;;12.90;74.83;99068.28;5030681;28;20017;-62
2023/07/26 02:34:07;;;;;;;3.92;1.42;;;;;;;12.96;74.86;99093.22;5048454;28;20049;-62
2023/07/26 02:36:32;;;;;;;3.33;0.98;;;;;;;12.95;75.25;99096.75;5048499;28;20018;-62
2023/07/26 02:38:57;;;;;;;5.43;1.30;;;;;;;12.80;75.04;99075.59;5048550;28;20432;-62
2023/07/26 02:41:23;;;;;;;6.38;1.10;;;;;;;12.94;75.46;99097.66;5048620;28;20028;-63
2023/07/26 02:43:48;;;;;;;1.02;0.85;;;;;;;12.93;75.77;99098.56;5048440;28;20025;-63
2023/07/26 02:46:14;;;;;;;4.30;1.15;;;;;;;12.90;75.83;99096.94;5030444;28;20029;-63
2023/07/26 02:48:39;;;;;;;5.43;0.60;;;;;;;12.91;76.21;99109.03;5048644;28;20026;-63
2023/07/26 02:51:04;;;;;;;2.83;0.90;;;;;;;12.93;76.67;99085.53;5048505;28;20437;-63
2023/07/26 02:53:30;;;;;;;12.27;1.17;;;;;;;12.88;76.72;99083.97;5048172;28;20029;-62
2023/07/26 02:55:55;;;;;;;7.43;1.58;;;;;;;12.97;77.15;99100.97;5048542;28;20040;-63
2023/07/26 02:58:21;;;;;;;2.05;0.90;;;;;;;12.97;77.18;99082.75;5048229;28;20028;-63
2023/07/26 03:00:51;;;;;;;4.28;1.17;;;;;;;12.99;77.25;99095.72;5048160;28;20079;-63
2023/07/26 03:03:16;;;;;;;10.48;1.88;;;;;;;13.00;77.16;99089.59;5048069;28;20025;-64
2023/07/26 03:05:42;;;;;;;1.73;0.93;;;;;;;13.06;77.05;99099.78;5047817;28;20053;-63
2023/07/26 03:08:07;;;;;;;10.52;0.70;;;;;;;13.07;77.05;99091.03;5047930;28;20462;-63
2023/07/26 03:10:33;;;;;;;4.15;0.93;;;;;;;13.09;77.00;99096.19;5047830;28;20029;-64
2023/07/26 03:12:59;;;;;;;4.35;1.17;;;;;;;13.12;76.72;99099.53;5047520;28;20132;-62
2023/07/26 03:15:24;;;;;;;3.25;0.63;;;;;;;13.12;76.75;99099.53;5048171;28;20021;-63
2023/07/26 03:17:49;;;;;;;4.47;0.90;;;;;;;13.14;76.35;99105.53;5047788;28;20478;-62
2023/07/26 03:20:15;;;;;;;5.32;1.17;;;;;;;13.11;76.42;99097.84;5047712;28;20025;-64
2023/07/26 03:22:40;;;;;;;2.15;1.45;;;;;;;13.09;76.68;99094.44;5047888;28;20041;-64
2023/07/26 03:25:06;;;;;;;3.53;0.80;;;;;;;13.10;76.87;99098.75;5047317;28;20029;-63
2023/07/26 03:27:32;;;;;;;1.23;0.43;;;;;;;13.16;76.77;99102.88;5047362;28;20025;-63
2023/07/26 03:29:57;;;;;;;0.98;0.80;;;;;;;13.18;76.59;99098.44;5047633;28;20025;-63
2023/07/26 03:32:22;;;;;;;6.00;1.50;;;;;;;13.24;76.50;99102.56;5047219;28;20018;-63
2023/07/26 03:34:48;;;;;;;7.20;1.33;;;;;;;13.27;76.54;99105.03;5047403;28;20378;-62
2023/07/26 03:37:13;;;;;;;5.03;1.52;;;;;;;13.32;76.59;99095.25;5029166;28;20024;-63
2023/07/26 03:39:38;;;;;;;1.23;0.90;;;;;;;13.38;76.39;99100.25;5047233;28;20557;-63
2023/07/26 03:42:04;;;;;;;3.42;1.15;;;;;;;13.41;75.94;99101.00;5029547;28;20032;-63
2023/07/26 03:44:29;;;;;;;1.52;0.77;;;;;;;13.43;76.02;99100.06;5046939;28;20037;-63
2023/07/26 03:46:55;;;;;;;0.95;0.75;;;;;;;13.48;75.59;99099.84;5047139;28;20120;-63
2023/07/26 03:49:20;;;;;;;3.17;0.88;;;;;;;13.50;75.47;99098.00;5047000;28;20032;-63
2023/07/26 03:51:46;;;;;;;4.25;0.90;;;;;;;13.53;75.19;99105.72;5029340;28;20021;-63
2023/07/26 03:54:11;;;;;;;5.97;2.05;;;;;;;13.54;75.04;99098.78;5046947;28;20044;-62
2023/07/26 03:56:37;;;;;;;8.48;1.10;;;;;;;13.48;74.40;99092.84;5047236;28;20025;-64
2023/07/26 03:59:02;;;;;;;3.08;0.80;;;;;;;13.54;74.38;99102.25;5046794;28;20032;-64
2023/07/26 04:01:27;;;;;;;6.00;1.17;;;;;;;13.52;74.26;99104.06;5046806;28;20401;-63
2023/07/26 04:03:53;;;;;;;5.47;1.10;;;;;;;13.52;74.34;99104.06;5046767;28;20018;-63
2023/07/26 04:06:18;;;;;;;5.90;0.95;;;;;;;13.55;74.53;99105.66;5047226;28;20116;-64
2023/07/26 04:08:44;;;;;;;7.93;0.85;;;;;;;13.62;74.19;99109.72;5046752;28;20017;-62
2023/07/26 04:11:11;;;;;;;2.63;0.73;;;;;;;13.67;74.08;99106.94;5047341;28;20021;-63
2023/07/26 04:13:37;;;;;;;11.13;1.65;;;;;;;13.72;74.09;99108.41;5046592;28;20038;-63
2023/07/26 04:16:15;;;;;;;4.30;1.08;;;;;;;13.86;73.99;99105.25;5046522;28;20029;-64
2023/07/26 04:18:40;;;;;;;2.65;1.45;;;;;;;13.87;73.40;99101.72;5046874;28;20021;-64
2023/07/26 04:21:06;;;;;;;3.70;0.68;;;;;;;13.89;73.22;99106.88;5046692;28;20036;-64
2023/07/26 04:23:31;;;;;;;7.65;1.30;;;;;;;13.94;73.07;99109.28;5046223;28;20033;-64
2023/07/26 04:25:57;;;;;;;7.85;1.02;;;;;;;14.00;72.91;99103.78;5046568;28;20025;-63
2023/07/26 04:28:22;;;;;;;7.72;1.08;;;;;;;13.96;72.93;99102.22;5046223;28;20033;-63
2023/07/26 04:30:48;;;;;;;3.58;0.90;;;;;;;14.01;72.90;99105.47;5046544;28;20029;-63
2023/07/26 04:33:14;;;;;;;2.05;1.00;;;;;;;13.96;72.98;99105.66;5046365;28;20028;-63
2023/07/26 04:35:39;;;;;;;5.90;0.90;;;;;;;13.95;73.05;99109.19;5046257;28;20021;-63
2023/07/26 04:38:05;;;;;;;3.35;1.20;;;;;;;13.97;72.84;99119.56;5046425;28;20451;-63
2023/07/26 04:40:30;;;;;;;1.90;1.02;;;;;;;14.00;72.82;99127.25;5046181;28;20029;-62
2023/07/26 04:42:55;;;;;;;9.80;0.88;;;;;;;14.06;72.63;99121.78;5045969;28;20458;-63
2023/07/26 04:45:21;;;;;;;5.05;1.02;;;;;;;14.17;72.45;99120.47;5046245;28;20044;-63
2023/07/26 04:47:46;;;;;;;1.85;1.27;;;;;;;14.23;72.61;99121.03;5045883;28;20029;-63
2023/07/26 04:50:11;;;;;;;9.27;1.48;;;;;;;14.61;73.03;99125.47;5045395;28;20482;-63
2023/07/26 04:52:37;;;;;;;9.35;0.80;;;;;;;15.08;71.31;99128.53;5046190;28;20032;-64
2023/07/26 04:55:07;;;;;;;5.22;1.75;;;;;;;15.11;69.15;99123.16;5044541;28;20076;-63
2023/07/26 04:57:32;;;;;;;2.10;1.02;;;;;;;14.98;68.73;99101.16;5046064;28;20049;-63
2023/07/26 04:59:57;;;;;;;4.20;1.00;;;;;;;14.99;69.08;99119.38;5045860;28;20036;-65
2023/07/26 05:02:23;;;;;;;2.85;0.90;;;;;;;14.97;69.29;99130.81;5045862;28;20021;-64
2023/07/26 05:04:48;;;;;;;6.72;1.02;;;;;;;14.91;69.32;99134.56;5045847;28;20036;-63
2023/07/26 05:07:13;;;;;;;7.43;0.88;;;;;;;14.80;69.21;99134.22;5045980;28;20045;-63
2023/07/26 05:09:39;;;;;;;6.22;1.10;;;;;;;14.74;69.36;99136.16;5045287;28;20025;-63
2023/07/26 05:12:05;;;;;;;5.00;1.40;;;;;;;14.76;69.80;99133.47;5045494;28;20029;-64
2023/07/26 05:14:30;;;;;;;4.55;0.80;;;;;;;15.13;70.57;99140.56;5045468;28;20062;-63
2023/07/26 05:16:55;;;;;;;4.45;1.02;;;;;;;15.49;69.55;99118.75;5045547;28;20067;-65
2023/07/26 05:19:21;;;;;;;1.75;0.80;;;;;;;15.60;67.00;99105.13;5028132;28;20029;-63
2023/07/26 05:21:46;;;;;;;0.98;0.50;;;;;;;15.56;66.10;99137.63;5045737;28;20367;-64
2023/07/26 05:24:12;;;;;;;0.70;0.65;;;;;;;15.47;66.92;99144.13;5045373;28;20089;-64
2023/07/26 05:26:37;;;;;;;0.70;0.65;;;;;;;15.55;66.47;99128.91;5045468;28;20021;-63
2023/07/26 05:29:02;;;;;;;1.48;0.70;;;;;;;15.58;66.25;99139.22;5045397;28;20025;-63
2023/07/26 05:31:28;;;;;;;3.08;0.77;;;;;;;16.06;66.60;99140.38;5045347;28;20029;-65
2023/07/26 05:33:53;;;;;;;1.88;0.98;;;;;;;16.70;64.96;99139.66;5045384;28;20018;-64
2023/07/26 05:36:18;;;;;;;1.33;0.50;;;;;;;17.16;63.98;99140.69;5045237;28;20013;-64
2023/07/26 05:38:44;;;;;;;2.75;0.80;;;;;;;17.61;63.94;99129.41;5027325;28;20021;-64
2023/07/26 05:41:09;;;;;;;1.75;1.00;;;;;;;18.08;62.02;99136.25;5045281;28;20025;-64
2023/07/26 05:43:35;;;;;;;2.00;0.98;;;;;;;19.07;62.48;99136.34;5045162;28;20361;-64
2023/07/26 05:46:02;;;;;;;4.53;1.55;;;;;;;20.27;59.39;99135.53;5044956;28;20473;-64
2023/07/26 05:48:27;;;;;;;3.65;0.68;;;;;;;20.53;57.05;99143.41;5045324;28;20084;-64
2023/07/26 05:50:52;;;;;;;1.35;0.70;;;;;;;20.02;54.53;99139.88;5045163;28;20034;-63
2023/07/26 05:53:18;;;;;;;3.40;0.90;;;;;;;19.25;55.23;99143.19;5044995;28;20466;-64
2023/07/26 05:55:45;;;;;;;0.90;0.60;;;;;;;18.88;56.89;99146.38;5045246;28;20021;-64
2023/07/26 05:58:11;;;;;;;1.20;0.50;;;;;;;18.99;57.79;99143.91;5045061;28;20021;-64
2023/07/26 06:00:36;;;;;;;1.48;0.75;;;;;;;18.86;55.46;99142.97;5047115;28;20041;-64
2023/07/26 06:03:02;;;;;;;7.20;0.88;;;;;;;18.43;55.43;99147.38;5031016;28;20021;-63
2023/07/26 06:05:27;;;;;;;1.55;0.73;;;;;;;18.05;55.71;99149.56;5047510;28;20089;-64
2023/07/26 06:07:52;;;;;;;2.97;0.70;;;;;;;17.82;56.24;99143.06;5049049;28;20052;-64
2023/07/26 06:10:18;;;;;;;3.13;0.68;;;;;;;17.65;57.44;99142.25;5048988;28;20045;-65
2023/07/26 06:12:43;;;;;;;1.90;0.80;;;;;;;17.53;57.12;99143.84;5049036;28;20030;-63
2023/07/26 06:15:09;;;;;;;2.65;0.70;;;;;;;17.42;58.34;99141.84;5048920;28;20018;-64
2023/07/26 06:17:34;;;;;;;2.15;0.75;;;;;;;17.32;58.31;99152.00;5048704;28;20060;-64
2023/07/26 06:20:00;;;;;;;1.58;0.50;;;;;;;17.26;58.79;99151.50;5048759;28;20085;-64
2023/07/26 06:22:25;;;;;;;8.30;1.02;;;;;;;17.17;58.55;99155.50;5049013;28;20025;-63
2023/07/26 06:24:51;;;;;;;4.93;0.80;;;;;;;16.92;58.41;99148.94;5048443;28;20018;-65
2023/07/26 06:27:28;;;;;;;5.00;0.90;;;;;;;16.78;59.55;99152.34;5048777;28;20028;-63
2023/07/26 06:29:54;;;;;;;1.65;0.68;;;;;;;16.82;59.07;99156.50;5048849;28;20083;-64
2023/07/26 06:32:19;;;;;;;1.02;0.45;;;;;;;16.75;59.21;99157.75;5048383;28;20112;-63
2023/07/26 06:34:45;;;;;;;1.42;0.40;;;;;;;16.65;59.43;99157.41;5048323;28;20108;-63
2023/07/26 06:37:10;;;;;;;2.17;1.23;;;;;;;16.56;59.54;99175.31;5048454;28;20025;-64
2023/07/26 06:39:35;;;;;;;2.40;0.60;;;;;;;16.48;60.65;99169.63;5048166;28;20065;-65
2023/07/26 06:42:01;;;;;;;2.83;1.10;;;;;;;16.94;61.84;99168.06;5048539;28;20027;-64
2023/07/26 06:44:26;;;;;;;1.00;0.60;;;;;;;17.60;60.42;99160.09;5048543;28;20032;-64
2023/07/26 06:46:51;;;;;;;3.90;0.57;;;;;;;18.32;58.28;99159.38;5048125;28;20026;-64
2023/07/26 06:49:17;;;;;;;0.60;0.60;;;;;;;18.87;57.58;99161.28;5046943;28;20033;-63
2023/07/26 06:51:42;;;;;;;0.43;0.40;;;;;;;18.87;54.57;99149.91;5048510;28;20086;-63
2023/07/26 06:54:08;;;;;;;1.63;0.57;;;;;;;18.64;55.17;99163.56;5048031;28;20025;-63
2023/07/26 06:56:33;;;;;;;6.72;1.02;;;;;;;18.49;55.35;99177.66;5047981;28;20411;-64
2023/07/26 06:58:59;;;;;;;3.60;0.40;;;;;;;18.54;56.32;99172.97;5047193;28;20025;-64
2023/07/26 07:01:24;;;;;;;1.65;0.38;;;;;;;18.91;55.46;99167.22;5048367;28;20021;-65
2023/07/26 07:03:50;;;;;;;1.80;0.47;;;;;;;18.74;54.31;99178.78;5047921;28;20013;-64
2023/07/26 07:06:15;;;;;;;2.58;0.52;;;;;;;18.28;54.40;99178.03;5047566;28;20029;-65
2023/07/26 07:08:41;;;;;;;4.78;0.73;;;;;;;18.24;55.34;99177.41;5047224;28;20060;-64
2023/07/26 07:11:06;;;;;;;2.08;0.60;;;;;;;18.09;55.16;99166.84;5047033;28;20032;-63
2023/07/26 07:13:36;;;;;;;4.53;0.80;;;;;;;18.17;56.24;99183.94;5047448;28;20041;-64
2023/07/26 07:16:04;;;;;;;2.63;0.70;;;;;;;18.67;55.32;99173.06;5047729;28;20029;-64
2023/07/26 07:18:30;;;;;;;1.95;0.73;;;;;;;18.72;53.28;99168.38;5047727;28;20055;-64
2023/07/26 07:20:58;;;;;;;0.63;0.50;;;;;;;18.81;54.11;99180.09;5047835;28;20485;-64
2023/07/26 07:23:25;;;;;;;0.82;0.60;;;;;;;19.44;54.18;99179.69;5045975;28;20076;-63
2023/07/26 07:25:50;;;;;;;1.52;0.40;;;;;;;20.11;53.07;99177.09;5047877;28;20026;-64
2023/07/26 07:28:16;;;;;;;4.05;0.75;;;;;;;20.49;51.73;99175.38;5047560;28;20028;-64
2023/07/26 07:30:41;;;;;;;1.65;0.68;;;;;;;20.48;50.33;99174.53;5047188;28;20092;-64
2023/07/26 07:33:07;;;;;;;4.75;0.95;;;;;;;20.37;49.63;99171.78;5047392;28;20021;-62
2023/07/26 07:35:32;;;;;;;2.45;0.82;;;;;;;19.91;49.63;99181.88;5047615;28;20029;-63
2023/07/26 07:37:58;;;;;;;5.70;0.70;;;;;;;19.54;50.56;99182.53;5047401;28;20428;-64
2023/07/26 07:40:23;;;;;;;1.40;0.55;;;;;;;19.18;51.12;99182.19;5047323;28;20474;-65
2023/07/26 07:42:49;;;;;;;0.55;0.40;;;;;;;19.29;51.88;99177.09;5047323;28;20022;-63
2023/07/26 07:45:14;;;;;;;0.73;0.43;;;;;;;19.96;50.85;99181.56;5047036;28;20079;-65
2023/07/26 07:47:40;;;;;;;0.32;0.30;;;;;;;20.33;49.12;99170.31;5047057;28;20025;-64
2023/07/26 07:50:06;;;;;;;0.98;0.35;;;;;;;20.39;48.39;99183.06;5047104;28;20065;-63
2023/07/26 07:52:32;;;;;;;0.35;0.30;;;;;;;20.55;49.26;99185.47;5047044;28;20021;-63
2023/07/26 07:54:57;;;;;;;1.02;0.50;;;;;;;20.53;48.67;99190.00;5046655;28;20029;-64
2023/07/26 07:57:23;;;;;;;0.20;0.20;;;;;;;20.64;48.77;99192.75;5029377;28;20021;-64
2023/07/26 07:59:48;;;;;;;1.50;0.40;;;;;;;20.73;47.65;99183.34;5046943;28;20057;-63
2023/07/26 08:02:13;;;;;;;1.75;0.70;;;;;;;20.41;46.71;99186.44;5046857;28;20035;-64
2023/07/26 08:04:39;;;;;;;1.15;0.52;;;;;;;19.89;48.86;99199.59;5046725;28;20104;-63
2023/07/26 08:07:05;;;;;;;1.45;0.30;;;;;;;19.86;49.05;99191.84;5047049;28;20418;-63
2023/07/26 08:09:30;;;;;;;2.35;0.40;;;;;;;20.22;47.89;99184.25;5046397;28;20052;-63
2023/07/26 08:11:56;;;;;;;1.40;0.70;;;;;;;20.49;47.02;99196.47;5046845;28;20409;-64
2023/07/26 08:14:22;;;;;;;0.30;0.30;;;;;;;20.81;45.66;99191.53;5046372;28;20084;-63
2023/07/26 08:16:47;;;;;;;0.65;0.50;;;;;;;20.36;46.15;99201.72;5046218;28;20369;-64
2023/07/26 08:19:13;;;;;;;1.10;0.38;;;;;;;19.91;47.39;99208.19;5046625;28;20022;-63
2023/07/26 08:21:38;;;;;;;3.53;0.70;;;;;;;19.50;47.88;99204.75;5046738;28;20029;-63
2023/07/26 08:24:04;;;;;;;1.27;0.40;;;;;;;19.00;49.20;99210.47;5046262;28;20093;-63
2023/07/26 08:26:29;;;;;;;1.02;0.43;;;;;;;18.93;51.07;99210.88;5046654;28;20044;-63
2023/07/26 08:28:55;;;;;;;4.28;1.20;;;;;;;19.44;50.17;99221.78;5046002;28;20486;-63
2023/07/26 08:31:20;;;;;;;1.27;0.73;;;;;;;19.63;49.91;99216.13;5046500;28;20032;-64
2023/07/26 08:33:45;;;;;;;1.50;0.60;;;;;;;20.10;49.64;99201.72;5045976;28;20030;-63
2023/07/26 08:36:11;;;;;;;1.40;0.38;;;;;;;20.19;48.11;99196.66;5046576;28;20021;-63
2023/07/26 08:38:36;;;;;;;1.20;1.10;;;;;;;19.78;48.67;99213.44;5028062;28;20021;-63
2023/07/26 08:41:02;;;;;;;2.75;0.70;;;;;;;19.73;49.62;99216.38;5046184;28;20022;-63
2023/07/26 08:43:31;;;;;;;2.90;0.68;;;;;;;20.14;49.15;99221.66;5046481;28;20021;-64
2023/07/26 08:45:59;;;;;;;0.70;0.60;;;;;;;20.64;47.90;99223.56;5028528;28;20029;-65
2023/07/26 08:48:24;;;;;;;1.23;0.75;;;;;;;20.45;47.29;99197.63;5046048;28;20030;-63
2023/07/26 08:50:50;;;;;;;6.75;0.60;;;;;;;19.77;48.75;99231.03;5045997;28;20060;-64
2023/07/26 08:53:16;;;;;;;0.80;0.45;;;;;;;19.99;49.75;99228.75;5045938;28;20025;-64
2023/07/26 08:55:42;;;;;;;0.30;0.30;;;;;;;20.55;49.01;99212.69;5045837;28;20040;-64
2023/07/26 08:58:07;;;;;;;1.85;0.98;;;;;;;20.46;47.59;99218.63;5046005;28;20021;-64
2023/07/26 09:00:33;;;;;;;1.63;0.60;;;;;;;19.82;48.90;99221.03;5045990;28;20081;-62
2023/07/26 09:03:01;;;;;;;3.25;1.00;;;;;;;19.26;50.00;99222.03;5045788;28;20470;-63
2023/07/26 09:05:26;;;;;;;2.40;1.17;;;;;;;19.04;51.61;99220.69;5045956;28;20040;-63
2023/07/26 09:07:52;;;;;;;1.52;0.60;;;;;;;19.11;51.64;99207.19;5045803;28;20448;-64
2023/07/26 09:10:31;;;;;;;0.70;0.40;;;;;;;19.32;50.65;99218.13;5045492;28;20035;-63
2023/07/26 09:13:13;;;;;;;3.22;0.70;;;;;;;18.99;51.07;99228.06;5045528;28;20105;-64
2023/07/26 09:15:39;;;;;;;;;;;;;;;18.62;51.91;99225.06;5046083;28;20018;-64
2023/07/26 09:18:05;;;;;;;2.10;0.60;;;;;;;18.23;52.80;99230.03;5045753;28;19916;-61
2023/07/26 09:20:31;;;;;;;1.55;0.75;;;;;;;18.03;53.54;99238.13;5045509;28;20036;-62
2023/07/26 09:23:07;;;;;;;0.52;0.43;;;;;;;18.77;53.52;99220.66;5045579;28;20033;-63
2023/07/26 09:25:34;;;;;;;5.03;0.60;;;;;;;19.26;51.88;99232.53;5045491;28;20033;-63
2023/07/26 09:28:01;;;;;;;1.75;0.57;;;;;;;19.25;51.50;99222.13;5045364;28;20025;-63
2023/07/26 09:30:26;;;;;;;2.28;0.80;;;;;;;19.17;51.54;99230.50;5045530;28;20401;-63
2023/07/26 09:32:53;;;;;;;5.78;0.93;;;;;;;18.90;51.89;99220.72;5045246;28;20025;-63
2023/07/26 09:35:18;;;;;;;1.48;0.95;;;;;;;18.99;52.63;99227.22;5045117;28;20109;-63
2023/07/26 09:37:44;;;;;;;6.25;0.63;;;;;;;19.11;51.90;99221.19;5045372;28;20019;-63
2023/07/26 09:40:10;;;;;;;1.52;0.73;;;;;;;19.06;52.03;99217.97;5045093;28;20028;-63
2023/07/26 09:42:46;;;;;;;3.28;0.82;;;;;;;19.02;52.10;99235.75;5045634;28;20085;-63
2023/07/26 09:45:19;;;;;;;5.05;1.02;;;;;;;18.83;52.74;99225.53;5045094;28;20045;-64
2023/07/26 09:47:46;;;;;;;8.02;0.60;;;;;;;19.41;53.31;99227.25;5044913;28;20028;-63
2023/07/26 09:50:31;;;;;;;0.32;0.32;;;;;;;19.93;50.64;99222.97;5027175;28;20027;-63
2023/07/26 09:52:57;;;;;;;1.00;0.70;;;;;;;19.39;50.74;99218.59;5044595;28;20041;-64
2023/07/26 09:55:24;;;;;;;3.30;0.75;;;;;;;19.16;51.41;99228.78;5045161;28;20021;-64
2023/07/26 09:57:55;;;;;;;3.38;0.57;;;;;;;19.20;52.36;99235.56;5045112;28;20105;-63
2023/07/26 10:00:26;;;;;;;1.25;0.75;;;;;;;19.14;51.97;99226.25;5045175;28;20025;-64
2023/07/26 10:03:01;;;;;;;1.85;0.60;;;;;;;18.95;51.97;99216.03;5044755;28;20036;-64
2023/07/26 10:05:45;;;;;;;2.75;0.70;;;;;;;19.17;52.55;99230.50;5044977;28;20382;-64
2023/07/26 10:08:12;;;;;;;1.02;0.60;;;;;;;19.97;51.74;99226.22;5027413;28;20017;-64
2023/07/26 10:10:37;;;;;;;0.93;0.60;;;;;;;20.83;50.14;99228.34;5044758;28;20021;-63
2023/07/26 10:13:04;;;;;;;3.50;0.43;;;;;;;20.85;48.48;99228.25;5044656;28;20041;-64
2023/07/26 10:15:30;;;;;;;0.77;0.70;;;;;;;20.46;48.31;99221.25;5044688;28;20029;-65
2023/07/26 10:17:57;;;;;;;1.95;0.70;;;;;;;20.28;48.04;99229.47;5045334;28;20299;-65
2023/07/26 10:20:22;;;;;;;1.20;0.30;;;;;;;19.83;49.00;99235.06;5044527;28;20450;-64
2023/07/26 10:22:50;;;;;;;2.33;0.40;;;;;;;19.60;49.32;99228.69;5044973;28;20026;-64
2023/07/26 10:25:16;;;;;;;1.40;0.63;;;;;;;19.66;50.63;99230.91;5044695;28;20080;-63
2023/07/26 10:27:43;;;;;;;0.30;0.30;;;;;;;20.64;48.70;99220.94;5045060;28;20022;-64
2023/07/26 10:30:09;;;;;;;0.80;0.40;;;;;;;21.54;46.65;99235.69;5043411;28;20022;-65
2023/07/26 10:32:41;;;;;;;2.75;0.40;;;;;;;21.94;45.46;99223.13;5044566;28;20025;-64
2023/07/26 10:35:09;;;;;;;0.38;0.30;;;;;;;22.58;45.07;99217.44;5026858;28;20089;-64
2023/07/26 10:37:34;;;;;;;1.50;0.77;;;;;;;22.08;44.94;99216.78;5045045;28;20037;-64
2023/07/26 10:40:24;;;;;;;1.38;0.65;;;;;;;21.32;46.21;99235.56;5044601;28;20017;-64
2023/07/26 10:42:50;;;;;;;0.65;0.30;;;;;;;20.93;47.50;99229.44;5044042;28;20083;-64
2023/07/26 10:45:44;;;;;;;0.55;0.55;;;;;;;21.05;47.24;99240.91;5043223;28;20033;-64
2023/07/26 10:48:48;;;;;;;0.90;0.32;;;;;;;21.42;46.40;99233.94;5047443;28;20085;-64
2023/07/26 10:51:22;;;;;;;1.20;0.40;;;;;;;21.99;45.76;99233.34;4948635;29;20028;-64
2023/07/26 10:53:48;;;;;;;0.65;0.65;;;;;;;22.36;44.15;99237.63;4948455;29;20032;-64
2023/07/26 10:56:24;;;;;;;2.58;0.60;;;;;;;22.37;44.55;99231.38;4948770;29;20113;-64
2023/07/26 10:58:57;;;;;;;4.78;0.95;;;;;;;22.29;44.71;99230.19;4948261;29;20087;-64
2023/07/26 11:01:44;;;;;;;1.65;0.40;;;;;;;22.16;43.88;99240.00;4948213;29;20027;-64
2023/07/26 11:04:14;;;;;;;0.73;0.57;;;;;;;21.84;44.41;99241.47;4948056;29;20031;-64
2023/07/26 11:06:51;;;;;;;1.42;0.65;;;;;;;21.02;44.42;99246.41;4948426;29;20035;-63
2023/07/26 11:09:35;;;;;;;0.50;0.40;;;;;;;20.25;47.03;99239.38;4947998;29;20043;-64
2023/07/26 11:12:03;;;;;;;0.77;0.57;;;;;;;19.65;48.37;99245.03;4948072;29;20027;-64
2023/07/26 11:14:30;;;;;;;0.20;0.20;;;;;;;19.15;50.34;99238.47;4947942;29;20111;-64
2023/07/26 11:16:58;;;;;;;3.05;0.70;;;;;;;18.88;51.22;99251.53;4948125;29;20023;-65
2023/07/26 11:19:23;;;;;;;4.53;0.52;;;;;;;18.60;52.68;99243.56;4947800;29;20287;-64
2023/07/26 11:21:49;;;;;;;0.75;0.50;;;;;;;18.36;53.33;99251.13;4992059;28;20041;-64
2023/07/26 11:24:15;;;;;;;2.08;0.50;;;;;;;18.11;53.49;99253.41;5047296;28;20022;-64
2023/07/26 11:26:43;;;;;;;4.47;0.80;;;;;;;17.82;54.27;99262.06;5047466;28;20022;-63
2023/07/26 11:29:09;;;;;;;2.58;1.13;;;;;;;17.76;55.36;99256.28;5047649;28;20025;-64
2023/07/26 11:31:34;;;;;;;2.20;0.50;;;;;;;18.09;55.88;99256.13;5047341;28;20025;-64
2023/07/26 11:34:12;;;;;;;2.42;0.60;;;;;;;18.35;53.71;99254.72;5047617;28;20040;-63